sensor_id;sensor_type;location;lat;lon;timestamp;pressure;altitude;pressure_sealevel;temperature;humidity
50380;BME280;37474;59.468;18.040;2022-10-17T00:02:29;100769.88;;;8.10;100.00
50380;BME280;37474;59.468;18.040;2022-10-17T00:04:57;100776.56;;;7.93;100.00
50380;BME280;37474;59.468;18.040;2022-10-17T00:07:27;100778.31;;;7.93;100.00
50380;BME280;37474;59.468;18.040;2022-10-17T00:09:58;100793.56;;;7.99;100.00
50380;BME280;37474;59.468;18.040;2022-10-17T00:12:30;100755.41;;;7.85;100.00
50380;BME280;37474;59.468;18.040;2022-10-17T00:14:57;100791.78;;;8.01;100.00
50380;BME280;37474;59.468;18.040;2022-10-17T00:17:27;100776.34;;;7.78;100.00
50380;BME280;37474;59.468;18.040;2022-10-17T00:19:58;100786.38;;;7.85;100.00
50380;BME280;37474;59.468;18.040;2022-10-17T00:22:27;100789.47;;;7.93;100.00
50380;BME280;37474;59.468;18.040;2022-10-17T00:24:56;100786.19;;;8.12;100.00
50380;BME280;37474;59.468;18.040;2022-10-17T00:27:28;100793.75;;;8.16;100.00
50380;BME280;37474;59.468;18.040;2022-10-17T00:29:56;100791.78;;;8.21;100.00
50380;BME280;37474;59.468;18.040;2022-10-17T00:32:26;100805.84;;;8.14;100.00
50380;BME280;37474;59.468;18.040;2022-10-17T00:34:55;100813.34;;;8.20;100.00
50380;BME280;37474;59.468;18.040;2022-10-17T00:37:24;100796.38;;;8.15;100.00
50380;BME280;37474;59.468;18.040;2022-10-17T00:39:53;100827.06;;;8.44;100.00
50380;BME280;37474;59.468;18.040;2022-10-17T00:42:34;100816.00;;;8.41;100.00
50380;BME280;37474;59.468;18.040;2022-10-17T00:45:11;100821.66;;;8.51;100.00
50380;BME280;37474;59.468;18.040;2022-10-17T00:47:45;100843.34;;;8.46;100.00
50380;BME280;37474;59.468;18.040;2022-10-17T00:50:17;100833.72;;;8.70;100.00
50380;BME280;37474;59.468;18.040;2022-10-17T00:52:48;100806.34;;;8.66;100.00
50380;BME280;37474;59.468;18.040;2022-10-17T00:55:20;100839.44;;;8.79;100.00
50380;BME280;37474;59.468;18.040;2022-10-17T00:57:54;100835.78;;;8.83;100.00
50380;BME280;37474;59.468;18.040;2022-10-17T01:00:23;100799.69;;;8.61;100.00
50380;BME280;37474;59.468;18.040;2022-10-17T01:02:55;100831.41;;;8.85;98.57
50380;BME280;37474;59.468;18.040;2022-10-17T01:05:23;100812.53;;;8.62;98.79
50380;BME280;37474;59.468;18.040;2022-10-17T01:07:52;100838.50;;;8.59;99.79
50380;BME280;37474;59.468;18.040;2022-10-17T01:10:29;100848.78;;;8.61;100.00
50380;BME280;37474;59.468;18.040;2022-10-17T01:13:07;100818.03;;;8.33;100.00
50380;BME280;37474;59.468;18.040;2022-10-17T01:15:48;100869.31;;;8.64;100.00
50380;BME280;37474;59.468;18.040;2022-10-17T01:18:27;100863.38;;;8.82;100.00
50380;BME280;37474;59.468;18.040;2022-10-17T01:21:16;100865.31;;;8.77;100.00
50380;BME280;37474;59.468;18.040;2022-10-17T01:27:19;100888.75;;;8.94;98.79
50380;BME280;37474;59.468;18.040;2022-10-17T01:33:03;100885.88;;;8.80;98.66
50380;BME280;37474;59.468;18.040;2022-10-17T01:35:39;100897.81;;;8.83;99.67
50380;BME280;37474;59.468;18.040;2022-10-17T01:38:11;100916.03;;;9.02;98.29
50380;BME280;37474;59.468;18.040;2022-10-17T01:40:48;100889.59;;;8.95;97.97
50380;BME280;37474;59.468;18.040;2022-10-17T01:43:22;100909.88;;;9.04;98.75
50380;BME280;37474;59.468;18.040;2022-10-17T01:45:58;100926.09;;;9.08;98.18
50380;BME280;37474;59.468;18.040;2022-10-17T01:48:34;100923.63;;;9.05;98.70
50380;BME280;37474;59.468;18.040;2022-10-17T01:51:08;100890.50;;;8.94;96.74
50380;BME280;37474;59.468;18.040;2022-10-17T01:53:43;100938.69;;;9.15;98.37
50380;BME280;37474;59.468;18.040;2022-10-17T01:56:15;100947.69;;;9.27;95.65
50380;BME280;37474;59.468;18.040;2022-10-17T01:58:50;100856.06;;;8.71;95.80
50380;BME280;37474;59.468;18.040;2022-10-17T02:01:23;100910.00;;;9.01;96.85
50380;BME280;37474;59.468;18.040;2022-10-17T02:04:14;100947.25;;;9.17;96.68
50380;BME280;37474;59.468;18.040;2022-10-17T02:06:44;100969.38;;;9.24;97.48
50380;BME280;37474;59.468;18.040;2022-10-17T02:09:19;100969.25;;;9.28;96.80
50380;BME280;37474;59.468;18.040;2022-10-17T02:12:12;100973.63;;;9.25;97.39
50380;BME280;37474;59.468;18.040;2022-10-17T02:14:57;100974.84;;;9.37;95.39
50380;BME280;37474;59.468;18.040;2022-10-17T02:17:37;100946.47;;;9.15;94.04
50380;BME280;37474;59.468;18.040;2022-10-17T02:20:16;100983.53;;;9.36;94.45
50380;BME280;37474;59.468;18.040;2022-10-17T02:22:53;100977.41;;;9.39;92.40
50380;BME280;37474;59.468;18.040;2022-10-17T02:25:34;100964.91;;;9.28;92.42
50380;BME280;37474;59.468;18.040;2022-10-17T02:28:11;101028.50;;;9.34;94.07
50380;BME280;37474;59.468;18.040;2022-10-17T02:30:49;100982.22;;;9.26;93.16
50380;BME280;37474;59.468;18.040;2022-10-17T02:33:22;100950.66;;;8.97;92.88
50380;BME280;37474;59.468;18.040;2022-10-17T02:35:59;101018.06;;;9.35;91.62
50380;BME280;37474;59.468;18.040;2022-10-17T02:38:31;101027.44;;;9.38;89.68
50380;BME280;37474;59.468;18.040;2022-10-17T02:41:04;101001.97;;;9.49;87.67
50380;BME280;37474;59.468;18.040;2022-10-17T02:43:36;101031.88;;;9.56;88.87
50380;BME280;37474;59.468;18.040;2022-10-17T02:46:07;101038.63;;;9.38;89.29
50380;BME280;37474;59.468;18.040;2022-10-17T02:48:40;101002.97;;;9.04;91.03
50380;BME280;37474;59.468;18.040;2022-10-17T02:51:20;101026.53;;;9.18;90.14
50380;BME280;37474;59.468;18.040;2022-10-17T02:53:55;101014.66;;;9.35;88.12
50380;BME280;37474;59.468;18.040;2022-10-17T02:56:28;101039.16;;;9.26;90.28
50380;BME280;37474;59.468;18.040;2022-10-17T02:59:02;101034.06;;;9.45;87.75
50380;BME280;37474;59.468;18.040;2022-10-17T03:01:32;101037.47;;;9.25;89.03
50380;BME280;37474;59.468;18.040;2022-10-17T03:04:07;101058.38;;;9.41;87.47
50380;BME280;37474;59.468;18.040;2022-10-17T03:06:40;101033.28;;;9.22;87.58
50380;BME280;37474;59.468;18.040;2022-10-17T03:09:08;101058.25;;;9.23;88.10
50380;BME280;37474;59.468;18.040;2022-10-17T03:11:36;101072.38;;;9.15;89.70
50380;BME280;37474;59.468;18.040;2022-10-17T03:14:06;101073.09;;;9.18;89.48
50380;BME280;37474;59.468;18.040;2022-10-17T03:16:36;101080.31;;;9.10;89.25
50380;BME280;37474;59.468;18.040;2022-10-17T03:19:04;101076.03;;;9.09;89.23
50380;BME280;37474;59.468;18.040;2022-10-17T03:21:35;101079.19;;;9.17;88.21
50380;BME280;37474;59.468;18.040;2022-10-17T03:24:06;101091.22;;;9.18;88.69
50380;BME280;37474;59.468;18.040;2022-10-17T03:26:34;101044.31;;;8.84;88.92
50380;BME280;37474;59.468;18.040;2022-10-17T03:29:04;101100.78;;;9.16;89.04
50380;BME280;37474;59.468;18.040;2022-10-17T03:31:35;101100.22;;;9.08;89.87
50380;BME280;37474;59.468;18.040;2022-10-17T03:34:02;101105.75;;;8.99;89.64
50380;BME280;37474;59.468;18.040;2022-10-17T03:36:32;101130.97;;;8.94;90.66
50380;BME280;37474;59.468;18.040;2022-10-17T03:39:02;101121.09;;;9.04;90.20
50380;BME280;37474;59.468;18.040;2022-10-17T03:41:31;101145.50;;;8.96;90.08
50380;BME280;37474;59.468;18.040;2022-10-17T03:44:02;101145.28;;;9.03;90.36
50380;BME280;37474;59.468;18.040;2022-10-17T03:46:32;101155.25;;;8.90;90.74
50380;BME280;37474;59.468;18.040;2022-10-17T03:49:00;101161.19;;;8.92;91.08
50380;BME280;37474;59.468;18.040;2022-10-17T03:51:31;101167.38;;;8.88;91.69
50380;BME280;37474;59.468;18.040;2022-10-17T03:54:02;101153.97;;;8.78;91.85
50380;BME280;37474;59.468;18.040;2022-10-17T03:56:32;101184.16;;;8.78;92.42
50380;BME280;37474;59.468;18.040;2022-10-17T03:59:02;101143.91;;;8.47;92.18
50380;BME280;37474;59.468;18.040;2022-10-17T04:01:32;101182.34;;;8.80;92.37
50380;BME280;37474;59.468;18.040;2022-10-17T04:04:00;101159.38;;;8.72;90.64
50380;BME280;37474;59.468;18.040;2022-10-17T04:06:28;101199.88;;;8.95;91.16
50380;BME280;37474;59.468;18.040;2022-10-17T04:08:58;101161.50;;;8.61;91.85
50380;BME280;37474;59.468;18.040;2022-10-17T04:11:28;101214.97;;;8.82;92.92
50380;BME280;37474;59.468;18.040;2022-10-17T04:13:59;101203.56;;;8.64;92.80
50380;BME280;37474;59.468;18.040;2022-10-17T04:16:27;101222.34;;;8.69;93.43
50380;BME280;37474;59.468;18.040;2022-10-17T04:18:58;101224.78;;;8.74;92.47
50380;BME280;37474;59.468;18.040;2022-10-17T04:21:28;101230.50;;;8.82;91.73
50380;BME280;37474;59.468;18.040;2022-10-17T04:23:57;101165.75;;;8.38;92.06
50380;BME280;37474;59.468;18.040;2022-10-17T04:26:30;101242.88;;;8.74;92.85
50380;BME280;37474;59.468;18.040;2022-10-17T04:29:02;101189.94;;;8.36;93.28
50380;BME280;37474;59.468;18.040;2022-10-17T04:31:30;101200.28;;;8.36;92.99
50380;BME280;37474;59.468;18.040;2022-10-17T04:34:00;101167.25;;;8.19;92.57
50380;BME280;37474;59.468;18.040;2022-10-17T04:36:28;101267.44;;;8.86;92.10
50380;BME280;37474;59.468;18.040;2022-10-17T04:38:56;101273.34;;;8.64;92.66
50380;BME280;37474;59.468;18.040;2022-10-17T04:41:26;101273.97;;;8.72;92.39
50380;BME280;37474;59.468;18.040;2022-10-17T04:43:56;101293.81;;;8.70;92.23
50380;BME280;37474;59.468;18.040;2022-10-17T04:46:25;101281.53;;;8.77;92.26
50380;BME280;37474;59.468;18.040;2022-10-17T04:48:55;101285.44;;;8.64;92.87
50380;BME280;37474;59.468;18.040;2022-10-17T04:51:24;101296.09;;;8.55;93.87
50380;BME280;37474;59.468;18.040;2022-10-17T04:53:52;101240.84;;;8.32;92.74
50380;BME280;37474;59.468;18.040;2022-10-17T04:56:23;101289.13;;;8.57;92.96
50380;BME280;37474;59.468;18.040;2022-10-17T04:58:51;101293.81;;;8.70;93.13
50380;BME280;37474;59.468;18.040;2022-10-17T05:01:20;101322.22;;;8.72;91.92
50380;BME280;37474;59.468;18.040;2022-10-17T05:03:52;101312.06;;;8.66;92.35
50380;BME280;37474;59.468;18.040;2022-10-17T05:06:24;101293.13;;;8.40;92.27
50380;BME280;37474;59.468;18.040;2022-10-17T05:08:56;101329.22;;;8.68;91.74
50380;BME280;37474;59.468;18.040;2022-10-17T05:11:27;101332.94;;;8.61;92.33
50380;BME280;37474;59.468;18.040;2022-10-17T05:13:58;101295.06;;;8.34;91.69
50380;BME280;37474;59.468;18.040;2022-10-17T05:16:28;101346.06;;;8.80;90.41
50380;BME280;37474;59.468;18.040;2022-10-17T05:19:01;101347.25;;;8.70;90.94
50380;BME280;37474;59.468;18.040;2022-10-17T05:21:29;101354.47;;;8.60;91.54
50380;BME280;37474;59.468;18.040;2022-10-17T05:23:57;101359.06;;;8.52;92.65
50380;BME280;37474;59.468;18.040;2022-10-17T05:26:29;101363.03;;;8.62;91.41
50380;BME280;37474;59.468;18.040;2022-10-17T05:28:58;101340.22;;;8.49;91.23
50380;BME280;37474;59.468;18.040;2022-10-17T05:31:28;101379.59;;;8.57;91.38
50380;BME280;37474;59.468;18.040;2022-10-17T05:34:02;101365.78;;;8.58;91.80
50380;BME280;37474;59.468;18.040;2022-10-17T05:36:30;101379.03;;;8.47;92.13
50380;BME280;37474;59.468;18.040;2022-10-17T05:38:58;101359.34;;;8.44;92.28
50380;BME280;37474;59.468;18.040;2022-10-17T05:41:30;101377.75;;;8.60;91.27
50380;BME280;37474;59.468;18.040;2022-10-17T05:43:57;101390.28;;;8.46;92.86
50380;BME280;37474;59.468;18.040;2022-10-17T05:46:33;101364.63;;;8.40;91.45
50380;BME280;37474;59.468;18.040;2022-10-17T05:49:02;101385.25;;;8.41;92.47
50380;BME280;37474;59.468;18.040;2022-10-17T05:51:52;101371.56;;;8.38;91.05
50380;BME280;37474;59.468;18.040;2022-10-17T05:54:22;101345.41;;;8.20;90.78
50380;BME280;37474;59.468;18.040;2022-10-17T05:56:50;101409.78;;;8.55;91.04
50380;BME280;37474;59.468;18.040;2022-10-17T05:59:21;101413.91;;;8.60;90.71
50380;BME280;37474;59.468;18.040;2022-10-17T06:01:50;101413.19;;;8.57;91.04
50380;BME280;37474;59.468;18.040;2022-10-17T06:04:20;101432.72;;;8.65;90.18
50380;BME280;37474;59.468;18.040;2022-10-17T06:06:50;101413.63;;;8.43;91.77
50380;BME280;37474;59.468;18.040;2022-10-17T06:09:21;101443.25;;;8.59;91.12
50380;BME280;37474;59.468;18.040;2022-10-17T06:11:49;101447.91;;;8.48;92.12
50380;BME280;37474;59.468;18.040;2022-10-17T06:14:20;101449.72;;;8.46;92.89
50380;BME280;37474;59.468;18.040;2022-10-17T06:16:49;101458.56;;;8.65;91.06
50380;BME280;37474;59.468;18.040;2022-10-17T06:19:17;101464.78;;;8.60;91.41
50380;BME280;37474;59.468;18.040;2022-10-17T06:21:49;101460.03;;;8.74;90.17
50380;BME280;37474;59.468;18.040;2022-10-17T06:24:18;101457.59;;;8.69;90.26
50380;BME280;37474;59.468;18.040;2022-10-17T06:26:46;101452.75;;;8.59;90.59
50380;BME280;37474;59.468;18.040;2022-10-17T06:29:17;101415.66;;;8.32;90.29
50380;BME280;37474;59.468;18.040;2022-10-17T06:31:49;101477.78;;;8.85;89.11
50380;BME280;37474;59.468;18.040;2022-10-17T06:34:17;101479.38;;;8.89;88.75
50380;BME280;37474;59.468;18.040;2022-10-17T06:36:48;101482.75;;;8.91;88.69
50380;BME280;37474;59.468;18.040;2022-10-17T06:39:18;101493.28;;;8.85;89.36
50380;BME280;37474;59.468;18.040;2022-10-17T06:41:46;101485.38;;;8.89;88.07
50380;BME280;37474;59.468;18.040;2022-10-17T06:44:14;101504.00;;;9.01;87.52
50380;BME280;37474;59.468;18.040;2022-10-17T06:46:43;101475.41;;;9.05;86.44
50380;BME280;37474;59.468;18.040;2022-10-17T06:49:11;101488.69;;;8.94;86.73
50380;BME280;37474;59.468;18.040;2022-10-17T06:51:41;101469.31;;;8.80;86.79
50380;BME280;37474;59.468;18.040;2022-10-17T06:54:10;101529.34;;;9.16;86.52
50380;BME280;37474;59.468;18.040;2022-10-17T06:56:38;101542.09;;;9.22;86.02
50380;BME280;37474;59.468;18.040;2022-10-17T06:59:09;101508.06;;;9.08;85.62
50380;BME280;37474;59.468;18.040;2022-10-17T07:01:39;101535.19;;;9.22;86.24
50380;BME280;37474;59.468;18.040;2022-10-17T07:04:13;101556.47;;;9.31;87.00
50380;BME280;37474;59.468;18.040;2022-10-17T07:06:43;101509.16;;;9.01;85.80
50380;BME280;37474;59.468;18.040;2022-10-17T07:09:12;101566.53;;;9.38;84.96
50380;BME280;37474;59.468;18.040;2022-10-17T07:11:42;101561.19;;;9.44;85.04
50380;BME280;37474;59.468;18.040;2022-10-17T07:14:12;101556.09;;;9.41;85.01
50380;BME280;37474;59.468;18.040;2022-10-17T07:16:42;101576.50;;;9.50;84.39
50380;BME280;37474;59.468;18.040;2022-10-17T07:19:10;101569.81;;;9.43;84.48
50380;BME280;37474;59.468;18.040;2022-10-17T07:21:38;101552.88;;;9.35;84.93
50380;BME280;37474;59.468;18.040;2022-10-17T07:24:06;101561.81;;;9.51;84.00
50380;BME280;37474;59.468;18.040;2022-10-17T07:26:35;101565.41;;;9.47;84.73
50380;BME280;37474;59.468;18.040;2022-10-17T07:29:05;101572.75;;;9.59;84.81
50380;BME280;37474;59.468;18.040;2022-10-17T07:31:35;101588.88;;;9.67;83.48
50380;BME280;37474;59.468;18.040;2022-10-17T07:34:03;101587.88;;;9.71;83.59
50380;BME280;37474;59.468;18.040;2022-10-17T07:36:31;101563.81;;;9.43;83.19
50380;BME280;37474;59.468;18.040;2022-10-17T07:38:59;101605.13;;;9.72;83.42
50380;BME280;37474;59.468;18.040;2022-10-17T07:41:28;101605.69;;;9.81;83.88
50380;BME280;37474;59.468;18.040;2022-10-17T07:43:59;101606.44;;;9.84;82.55
50380;BME280;37474;59.468;18.040;2022-10-17T07:46:27;101607.91;;;9.91;82.15
50380;BME280;37474;59.468;18.040;2022-10-17T07:48:55;101617.34;;;9.94;82.52
50380;BME280;37474;59.468;18.040;2022-10-17T07:51:25;101577.50;;;9.71;82.15
50380;BME280;37474;59.468;18.040;2022-10-17T07:53:55;101574.41;;;9.62;82.09
50380;BME280;37474;59.468;18.040;2022-10-17T07:56:23;101560.22;;;9.47;83.19
50380;BME280;37474;59.468;18.040;2022-10-17T07:58:52;101624.50;;;9.86;83.05
50380;BME280;37474;59.468;18.040;2022-10-17T08:01:23;101612.34;;;9.88;82.90
50380;BME280;37474;59.468;18.040;2022-10-17T08:03:55;101635.06;;;10.04;81.77
50380;BME280;37474;59.468;18.040;2022-10-17T08:06:25;101602.53;;;9.72;82.55
50380;BME280;37474;59.468;18.040;2022-10-17T08:08:54;101605.59;;;9.84;80.53
50380;BME280;37474;59.468;18.040;2022-10-17T08:11:25;101652.63;;;10.21;80.86
50380;BME280;37474;59.468;18.040;2022-10-17T08:13:55;101612.72;;;10.02;81.01
50380;BME280;37474;59.468;18.040;2022-10-17T08:16:24;101652.47;;;10.27;79.81
50380;BME280;37474;59.468;18.040;2022-10-17T08:18:54;101617.34;;;9.94;80.34
50380;BME280;37474;59.468;18.040;2022-10-17T08:21:22;101671.94;;;10.38;79.60
50380;BME280;37474;59.468;18.040;2022-10-17T08:23:50;101635.09;;;10.29;80.03
50380;BME280;37474;59.468;18.040;2022-10-17T08:26:20;101665.50;;;10.49;81.21
50380;BME280;37474;59.468;18.040;2022-10-17T08:28:50;101672.41;;;10.49;81.24
50380;BME280;37474;59.468;18.040;2022-10-17T08:31:19;101683.22;;;10.37;81.84
50380;BME280;37474;59.468;18.040;2022-10-17T08:33:50;101669.81;;;10.49;80.08
50380;BME280;37474;59.468;18.040;2022-10-17T08:36:19;101684.28;;;10.56;80.83
50380;BME280;37474;59.468;18.040;2022-10-17T08:38:47;101685.06;;;10.58;81.01
50380;BME280;37474;59.468;18.040;2022-10-17T08:41:37;101677.31;;;10.33;81.37
50380;BME280;37474;59.468;18.040;2022-10-17T08:44:15;101639.53;;;10.26;80.56
50380;BME280;37474;59.468;18.040;2022-10-17T08:46:50;101688.84;;;10.49;80.37
50380;BME280;37474;59.468;18.040;2022-10-17T08:49:24;101671.75;;;10.44;80.47
50380;BME280;37474;59.468;18.040;2022-10-17T08:52:03;101720.44;;;10.59;80.51
50380;BME280;37474;59.468;18.040;2022-10-17T08:54:38;101720.66;;;10.78;79.83
50380;BME280;37474;59.468;18.040;2022-10-17T08:57:11;101718.09;;;10.76;79.21
50380;BME280;37474;59.468;18.040;2022-10-17T08:59:40;101729.44;;;10.74;78.34
50380;BME280;37474;59.468;18.040;2022-10-17T09:02:27;101725.94;;;10.75;79.12
50380;BME280;37474;59.468;18.040;2022-10-17T09:05:19;101699.94;;;10.53;79.52
50380;BME280;37474;59.468;18.040;2022-10-17T09:08:01;101725.53;;;10.62;80.13
50380;BME280;37474;59.468;18.040;2022-10-17T09:10:49;101744.25;;;10.70;79.24
50380;BME280;37474;59.468;18.040;2022-10-17T09:13:27;101739.22;;;10.66;79.21
50380;BME280;37474;59.468;18.040;2022-10-17T09:16:08;101741.31;;;10.56;79.74
50380;BME280;37474;59.468;18.040;2022-10-17T09:18:49;101701.59;;;10.30;80.38
50380;BME280;37474;59.468;18.040;2022-10-17T09:21:32;101753.25;;;10.60;79.67
50380;BME280;37474;59.468;18.040;2022-10-17T09:24:11;101767.03;;;10.62;78.66
50380;BME280;37474;59.468;18.040;2022-10-17T09:26:44;101767.72;;;10.67;79.00
50380;BME280;37474;59.468;18.040;2022-10-17T09:29:19;101704.88;;;10.36;78.13
50380;BME280;37474;59.468;18.040;2022-10-17T09:31:57;101758.88;;;10.48;78.55
50380;BME280;37474;59.468;18.040;2022-10-17T09:34:28;101767.47;;;10.50;78.83
50380;BME280;37474;59.468;18.040;2022-10-17T09:37:01;101774.00;;;10.60;78.86
50380;BME280;37474;59.468;18.040;2022-10-17T09:39:31;101774.53;;;10.70;77.37
50380;BME280;37474;59.468;18.040;2022-10-17T09:42:00;101728.81;;;10.42;77.26
50380;BME280;37474;59.468;18.040;2022-10-17T09:44:31;101703.50;;;10.49;75.87
50380;BME280;37474;59.468;18.040;2022-10-17T09:47:17;101774.22;;;11.02;76.70
50380;BME280;37474;59.468;18.040;2022-10-17T09:49:48;101782.81;;;11.28;75.76
50380;BME280;37474;59.468;18.040;2022-10-17T09:52:24;101786.13;;;11.08;73.62
50380;BME280;37474;59.468;18.040;2022-10-17T09:54:58;101781.47;;;10.93;74.98
50380;BME280;37474;59.468;18.040;2022-10-17T09:57:50;101789.94;;;10.98;74.76
50380;BME280;37474;59.468;18.040;2022-10-17T10:00:22;101763.63;;;11.08;75.13
50380;BME280;37474;59.468;18.040;2022-10-17T10:03:07;101799.22;;;11.28;73.81
50380;BME280;37474;59.468;18.040;2022-10-17T10:05:37;101814.50;;;11.13;71.86
50380;BME280;37474;59.468;18.040;2022-10-17T10:08:13;101806.66;;;11.14;74.77
50380;BME280;37474;59.468;18.040;2022-10-17T10:10:41;101764.56;;;10.82;71.93
50380;BME280;37474;59.468;18.040;2022-10-17T10:13:17;101809.59;;;11.05;72.77
50380;BME280;37474;59.468;18.040;2022-10-17T10:15:49;101804.22;;;11.09;72.70
50380;BME280;37474;59.468;18.040;2022-10-17T10:18:27;101795.03;;;11.01;73.68
50380;BME280;37474;59.468;18.040;2022-10-17T10:21:07;101800.56;;;11.39;72.10
50380;BME280;37474;59.468;18.040;2022-10-17T10:23:37;101793.78;;;11.34;70.92
50380;BME280;37474;59.468;18.040;2022-10-17T10:26:21;101811.09;;;11.57;70.22
50380;BME280;37474;59.468;18.040;2022-10-17T10:28:54;101807.56;;;11.82;70.51
50380;BME280;37474;59.468;18.040;2022-10-17T10:31:31;101800.72;;;11.79;68.66
50380;BME280;37474;59.468;18.040;2022-10-17T10:34:13;101788.09;;;11.70;66.13
50380;BME280;37474;59.468;18.040;2022-10-17T10:36:48;101815.50;;;12.01;66.84
50380;BME280;37474;59.468;18.040;2022-10-17T10:39:26;101776.59;;;11.76;67.25
50380;BME280;37474;59.468;18.040;2022-10-17T10:41:57;101791.06;;;11.61;66.44
50380;BME280;37474;59.468;18.040;2022-10-17T10:44:29;101820.13;;;11.93;68.01
50380;BME280;37474;59.468;18.040;2022-10-17T10:47:13;101788.81;;;11.74;66.94
50380;BME280;37474;59.468;18.040;2022-10-17T10:49:42;101822.69;;;12.16;67.64
50380;BME280;37474;59.468;18.040;2022-10-17T10:52:18;101820.53;;;12.26;66.85
50380;BME280;37474;59.468;18.040;2022-10-17T10:54:54;101771.28;;;11.57;66.38
50380;BME280;37474;59.468;18.040;2022-10-17T10:57:29;101802.19;;;11.86;65.81
50380;BME280;37474;59.468;18.040;2022-10-17T11:00:04;101822.03;;;12.11;66.22
50380;BME280;37474;59.468;18.040;2022-10-17T11:02:44;101841.56;;;11.76;65.79
50380;BME280;37474;59.468;18.040;2022-10-17T11:05:17;101796.44;;;11.56;65.63
50380;BME280;37474;59.468;18.040;2022-10-17T11:07:51;101811.94;;;11.58;62.86
50380;BME280;37474;59.468;18.040;2022-10-17T11:10:28;101803.97;;;11.62;64.96
50380;BME280;37474;59.468;18.040;2022-10-17T11:13:03;101797.09;;;11.61;63.57
50380;BME280;37474;59.468;18.040;2022-10-17T11:15:36;101820.38;;;11.86;62.43
50380;BME280;37474;59.468;18.040;2022-10-17T11:18:09;101831.34;;;11.95;63.56
50380;BME280;37474;59.468;18.040;2022-10-17T11:20:47;101797.66;;;11.92;63.91
50380;BME280;37474;59.468;18.040;2022-10-17T11:23:22;101829.41;;;12.00;62.58
50380;BME280;37474;59.468;18.040;2022-10-17T11:25:52;101844.00;;;12.02;62.86
50380;BME280;37474;59.468;18.040;2022-10-17T11:28:23;101809.53;;;11.75;63.16
50380;BME280;37474;59.468;18.040;2022-10-17T11:30:57;101795.19;;;11.65;64.23
50380;BME280;37474;59.468;18.040;2022-10-17T11:33:40;101786.81;;;11.58;64.80
50380;BME280;37474;59.468;18.040;2022-10-17T11:36:11;101845.09;;;11.97;64.96
50380;BME280;37474;59.468;18.040;2022-10-17T11:38:46;101844.50;;;11.90;62.95
50380;BME280;37474;59.468;18.040;2022-10-17T11:41:23;101815.09;;;11.66;62.90
50380;BME280;37474;59.468;18.040;2022-10-17T11:43:58;101839.16;;;11.93;63.62
50380;BME280;37474;59.468;18.040;2022-10-17T11:46:34;101808.13;;;11.90;63.67
50380;BME280;37474;59.468;18.040;2022-10-17T11:49:09;101831.56;;;12.10;62.77
50380;BME280;37474;59.468;18.040;2022-10-17T11:51:48;101839.31;;;12.12;63.23
50380;BME280;37474;59.468;18.040;2022-10-17T11:54:30;101816.19;;;12.04;62.64
50380;BME280;37474;59.468;18.040;2022-10-17T11:57:14;101800.69;;;12.03;62.83
50380;BME280;37474;59.468;18.040;2022-10-17T11:59:56;101836.47;;;12.18;62.22
50380;BME280;37474;59.468;18.040;2022-10-17T12:02:33;101812.31;;;11.94;63.21
50380;BME280;37474;59.468;18.040;2022-10-17T12:05:17;101850.19;;;12.22;64.30
50380;BME280;37474;59.468;18.040;2022-10-17T12:07:50;101806.69;;;12.05;66.27
50380;BME280;37474;59.468;18.040;2022-10-17T12:10:32;101828.84;;;12.13;62.47
50380;BME280;37474;59.468;18.040;2022-10-17T12:16:43;101838.84;;;12.45;63.34
50380;BME280;37474;59.468;18.040;2022-10-17T12:19:24;101829.97;;;12.28;63.77
50380;BME280;37474;59.468;18.040;2022-10-17T12:21:56;101799.66;;;12.07;63.71
50380;BME280;37474;59.468;18.040;2022-10-17T12:24:32;101833.94;;;12.37;63.69
50380;BME280;37474;59.468;18.040;2022-10-17T12:27:20;101823.59;;;12.35;63.52
50380;BME280;37474;59.468;18.040;2022-10-17T12:29:49;101814.38;;;12.28;65.86
50380;BME280;37474;59.468;18.040;2022-10-17T12:32:18;101816.44;;;12.20;65.48
50380;BME280;37474;59.468;18.040;2022-10-17T12:34:51;101822.84;;;12.33;67.20
50380;BME280;37474;59.468;18.040;2022-10-17T12:40:49;101820.75;;;12.41;64.40
50380;BME280;37474;59.468;18.040;2022-10-17T12:46:44;101790.50;;;12.19;66.44
50380;BME280;37474;59.468;18.040;2022-10-17T12:49:37;101811.72;;;12.30;66.50
50380;BME280;37474;59.468;18.040;2022-10-17T12:52:18;101816.38;;;12.42;67.17
50380;BME280;37474;59.468;18.040;2022-10-17T12:54:56;101782.06;;;12.34;67.10
50380;BME280;37474;59.468;18.040;2022-10-17T12:57:41;101799.88;;;12.63;66.05
50380;BME280;37474;59.468;18.040;2022-10-17T13:00:19;101815.75;;;12.57;67.98
50380;BME280;37474;59.468;18.040;2022-10-17T13:02:50;101813.38;;;12.31;66.67
50380;BME280;37474;59.468;18.040;2022-10-17T13:05:26;101822.63;;;12.18;69.83
50380;BME280;37474;59.468;18.040;2022-10-17T13:07:58;101819.09;;;12.19;67.50
50380;BME280;37474;59.468;18.040;2022-10-17T13:10:29;101822.34;;;12.24;68.37
50380;BME280;37474;59.468;18.040;2022-10-17T13:13:04;101807.94;;;11.95;69.36
50380;BME280;37474;59.468;18.040;2022-10-17T13:15:35;101829.94;;;12.08;68.86
50380;BME280;37474;59.468;18.040;2022-10-17T13:18:17;101832.53;;;12.08;70.26
50380;BME280;37474;59.468;18.040;2022-10-17T13:20:56;101780.84;;;11.78;69.92
50380;BME280;37474;59.468;18.040;2022-10-17T13:23:25;101834.88;;;12.14;68.81
50380;BME280;37474;59.468;18.040;2022-10-17T13:26:06;101841.25;;;12.07;70.70
50380;BME280;37474;59.468;18.040;2022-10-17T13:28:35;101809.00;;;11.67;73.32
50380;BME280;37474;59.468;18.040;2022-10-17T13:31:05;101837.00;;;11.82;74.64
50380;BME280;37474;59.468;18.040;2022-10-17T13:33:35;101827.22;;;11.89;72.72